Skip Navigation LinksHome page > Weather > Current weather Skip Navigation Links

Current Weather

The William B Hartsfield Atlanta Intl, Atlanta

For information only: do not use for flight planning or navigation.
Latest weather
Observation time Sunday, May 26, 2019 11:52 AM EDT
Local time Sunday, May 26, 2019 12:12 PM EDT
Flight conditions Visual Meteorological Conditions
Winds
Wind direction West-Southwest (240°)
Wind speed 7 mph
Visibility 10 mi.
Sky condition
Ceiling unlimited
Cloud layer few clouds 5,500 ft.
Cloud layer few clouds 25,000 ft.
Temperature 89°F
Dewpoint 66°F
Altimeter 30.19 in.Hg
Derived measurements
Relative humidity 47%
Heat index 92°F
Density altitude 2927 ft.
Sea-level pressure 30.15 in.Hg
Remarks
Automated weather observing station with precipitation discriminator.
METAR KATL 261552Z 24006KT 10SM FEW055 FEW250 32/19 A3019 RMK AO2 SLP211 T03170189

Settings

Location code

InnerDrive.Weather 4.0.6770.0 Release CLR 4.0.30319.42000
Copyright ©2018 Inner Drive Technology. All rights reserved. Portions Copyright ©1986-2018 David Braverman.

Find weather

Site navigation


Skip Navigation Links

Place info

Page info

PayPal - The safer, easier way to pay online!

Return home.

Copyright ©2019 Inner Drive Technology. Purveyors of fine, hand-crafted computer software. Page printed 2019-05-26T16:12:33 UTC.